createdAt,value
2023-12-16T00:00:23.379Z,95664.27
2023-12-16T00:01:19.590Z,95660.13
2023-12-16T00:02:03.052Z,95652.39
2023-12-16T00:02:43.704Z,95656.08
2023-12-16T00:03:17.804Z,95653.69
2023-12-16T00:04:03.349Z,95655.39
2023-12-16T00:04:39.674Z,95658.15
2023-12-16T00:05:13.672Z,95655.16
2023-12-16T00:05:49.309Z,95653.24
2023-12-16T00:06:23.635Z,95651.20
2023-12-16T00:06:59.702Z,95643.40
2023-12-16T00:07:46.718Z,95645.19
2023-12-16T00:08:21.217Z,95638.40
2023-12-16T00:08:55.214Z,95645.55
2023-12-16T00:09:29.335Z,95648.41
2023-12-16T00:10:03.942Z,95651.30
2023-12-16T00:10:40.291Z,95648.80
2023-12-16T00:11:28.466Z,95652.73
2023-12-16T00:12:02.972Z,95650.05
2023-12-16T00:12:37.808Z,95648.45
2023-12-16T00:13:12.398Z,95648.59
2023-12-16T00:13:46.180Z,95646.48
2023-12-16T00:14:20.192Z,95638.54
2023-12-16T00:15:10.000Z,95644.74
2023-12-16T00:15:44.262Z,95646.20
2023-12-16T00:16:18.328Z,95648.23
2023-12-16T00:16:52.732Z,95650.52
2023-12-16T00:17:38.196Z,95648.67
2023-12-16T00:18:47.628Z,95652.85
2023-12-16T00:19:21.738Z,95655.34
2023-12-16T00:19:57.072Z,95652.96
2023-12-16T00:20:31.058Z,95650.69
2023-12-16T00:21:05.371Z,95648.58
2023-12-16T00:21:39.488Z,95655.05
2023-12-16T00:22:30.578Z,95658.88
2023-12-16T00:23:04.892Z,95665.39
2023-12-16T00:23:39.209Z,95662.44
2023-12-16T00:24:14.951Z,95661.58
2023-12-16T00:24:49.289Z,95658.70
2023-12-16T00:25:23.244Z,95660.95
2023-12-16T00:26:10.126Z,95663.50
2023-12-16T00:26:44.154Z,95662.88
2023-12-16T00:27:17.811Z,95664.67
2023-12-16T00:27:51.506Z,95663.39
2023-12-16T00:28:26.072Z,95663.10
2023-12-16T00:29:00.280Z,95667.59
2023-12-16T00:29:51.179Z,95667.52
2023-12-16T00:30:27.595Z,95669.72
2023-12-16T00:31:02.483Z,95670.94
2023-12-16T00:31:36.331Z,95672.19
2023-12-16T00:32:10.187Z,95668.21
2023-12-16T00:32:45.303Z,95668.77
2023-12-16T00:33:36.017Z,95672.44
2023-12-16T00:34:12.096Z,95673.52
2023-12-16T00:34:45.833Z,95668.76
2023-12-16T00:35:20.170Z,95666.83
2023-12-16T00:35:55.367Z,95670.77
2023-12-16T00:36:29.277Z,95670.35
2023-12-16T00:37:15.955Z,95669.23
2023-12-16T00:37:50.314Z,95672.48
2023-12-16T00:38:24.826Z,95674.17
2023-12-16T00:39:01.460Z,95675.90
2023-12-16T00:39:36.659Z,95674.86
2023-12-16T00:40:11.770Z,95674.10
2023-12-16T00:41:00.835Z,95673.52
2023-12-16T00:41:36.858Z,95676.02
2023-12-16T00:42:10.766Z,95675.73
2023-12-16T00:42:44.708Z,95678.14
2023-12-16T00:43:18.642Z,95677.45
2023-12-16T00:43:52.819Z,95677.26
2023-12-16T00:44:35.370Z,95679.28
2023-12-16T00:45:09.448Z,95674.70
2023-12-16T00:45:43.189Z,95673.94
2023-12-16T00:46:17.165Z,95676.95
2023-12-16T00:46:50.814Z,95674.29
2023-12-16T00:47:25.736Z,95677.78
2023-12-16T00:48:15.941Z,95679.45
2023-12-16T00:48:49.869Z,95681.83
2023-12-16T00:49:23.679Z,95678.50
2023-12-16T00:49:57.762Z,95682.19
2023-12-16T00:50:33.514Z,95681.55
2023-12-16T00:51:08.057Z,95684.08
2023-12-16T00:51:58.124Z,95683.83
2023-12-16T00:52:32.458Z,95688.43
2023-12-16T00:53:06.698Z,95690.13
2023-12-16T00:53:40.802Z,95689.42
2023-12-16T00:54:14.790Z,95691.05
2023-12-16T00:54:49.341Z,95689.41
2023-12-16T00:55:36.273Z,95691.63
2023-12-16T00:56:11.029Z,95690.76
2023-12-16T00:56:44.897Z,95689.10
2023-12-16T00:57:18.769Z,95700.69
2023-12-16T00:57:52.876Z,95697.23
2023-12-16T00:58:26.784Z,95698.33
2023-12-16T00:59:13.715Z,95699.02
2023-12-16T00:59:47.449Z,95700.85
2023-12-16T01:00:21.074Z,95698.82
2023-12-16T01:00:55.229Z,95698.49
2023-12-16T01:01:29.554Z,95699.05
2023-12-16T01:02:09.945Z,95701.59
2023-12-16T01:02:52.449Z,95701.19
2023-12-16T01:03:30.811Z,95705.09
2023-12-16T01:04:07.731Z,95701.13
2023-12-16T01:04:44.349Z,95707.23
2023-12-16T01:05:20.222Z,95706.89
2023-12-16T01:05:53.966Z,95703.81
2023-12-16T01:06:40.493Z,95698.89
2023-12-16T01:07:14.506Z,95693.88
2023-12-16T01:07:48.479Z,95700.77
2023-12-16T01:08:22.371Z,95699.45
2023-12-16T01:08:56.869Z,95695.23
2023-12-16T01:09:31.078Z,95698.52
2023-12-16T01:10:21.454Z,95694.68
2023-12-16T01:10:55.001Z,95697.55
2023-12-16T01:11:29.772Z,95694.84
2023-12-16T01:12:03.960Z,95695.56
2023-12-16T01:12:37.775Z,95696.33
2023-12-16T01:13:11.609Z,95696.55
2023-12-16T01:14:06.654Z,95688.58
2023-12-16T01:14:40.272Z,95690.52
2023-12-16T01:15:14.123Z,95692.35
2023-12-16T01:15:47.985Z,95680.90
2023-12-16T01:16:21.903Z,95690.09
2023-12-16T01:16:56.220Z,95686.41
2023-12-16T01:17:43.205Z,95686.32
2023-12-16T01:18:18.227Z,95686.23
2023-12-16T01:18:52.749Z,95688.32
2023-12-16T01:19:33.215Z,95684.96
2023-12-16T01:20:09.916Z,95688.42
2023-12-16T01:20:43.951Z,95671.52
2023-12-16T01:21:30.876Z,95678.01
2023-12-16T01:22:05.867Z,95686.64
2023-12-16T01:22:39.822Z,95688.30
2023-12-16T01:23:15.150Z,95688.36
2023-12-16T01:23:49.315Z,95690.12
2023-12-16T01:24:22.970Z,95691.36
2023-12-16T01:25:10.109Z,95691.44
2023-12-16T01:25:44.042Z,95691.11
2023-12-16T01:26:17.994Z,95687.69
2023-12-16T01:26:51.968Z,95685.79
2023-12-16T01:27:27.924Z,95683.41
2023-12-16T01:28:02.227Z,95681.89
2023-12-16T01:28:51.217Z,95682.87
2023-12-16T01:29:32.007Z,95682.23
2023-12-16T01:30:10.956Z,95675.18
2023-12-16T01:30:45.243Z,95669.02
2023-12-16T01:31:20.207Z,95668.83
2023-12-16T01:32:28.771Z,95666.23
2023-12-16T01:33:03.428Z,95669.67
2023-12-16T01:33:37.815Z,95673.36
2023-12-16T01:34:12.166Z,95669.98
2023-12-16T01:34:46.313Z,95678.44
2023-12-16T01:35:20.485Z,95677.38
2023-12-16T01:36:10.468Z,95682.80
2023-12-16T01:36:44.214Z,95689.09
2023-12-16T01:37:18.067Z,95688.25
2023-12-16T01:37:52.014Z,95689.40
2023-12-16T01:38:25.965Z,95686.06
2023-12-16T01:38:59.852Z,95685.87
2023-12-16T01:39:51.437Z,95686.56
2023-12-16T01:40:25.718Z,95687.70
2023-12-16T01:41:02.246Z,95692.15
2023-12-16T01:41:36.579Z,95692.68
2023-12-16T01:42:10.669Z,95691.91
2023-12-16T01:42:47.594Z,95678.06
2023-12-16T01:43:33.678Z,95683.52
2023-12-16T01:44:09.605Z,95678.95
2023-12-16T01:44:43.410Z,95675.92
2023-12-16T01:45:20.588Z,95674.07
2023-12-16T01:46:03.332Z,95671.61
2023-12-16T01:47:15.681Z,95670.66
2023-12-16T01:47:49.857Z,95671.51
2023-12-16T01:48:24.429Z,95668.45
2023-12-16T01:48:59.237Z,95667.95
2023-12-16T01:49:34.442Z,95664.79
2023-12-16T01:50:12.234Z,95669.37
2023-12-16T01:51:20.354Z,95666.91
2023-12-16T01:51:54.727Z,95669.27
2023-12-16T01:52:32.120Z,95668.89
2023-12-16T01:53:09.877Z,95668.27
2023-12-16T01:53:44.604Z,95670.54
2023-12-16T01:54:40.463Z,95672.30
2023-12-16T01:55:15.486Z,95675.13
2023-12-16T01:55:49.568Z,95680.30
2023-12-16T01:56:23.535Z,95681.60
2023-12-16T01:56:59.505Z,95681.22
2023-12-16T01:57:35.422Z,95681.21
2023-12-16T01:58:18.780Z,95680.08
2023-12-16T01:58:53.448Z,95680.68
2023-12-16T01:59:29.125Z,95680.95
2023-12-16T02:00:07.996Z,95679.45
2023-12-16T02:00:48.965Z,95681.58
2023-12-16T02:01:23.711Z,95678.95
2023-12-16T02:02:16.218Z,95682.85
2023-12-16T02:02:50.183Z,95679.77
2023-12-16T02:03:24.687Z,95681.02
2023-12-16T02:03:58.492Z,95671.59
2023-12-16T02:04:35.484Z,95681.67
2023-12-16T02:05:46.043Z,95683.13
2023-12-16T02:06:32.164Z,95686.08
2023-12-16T02:07:12.756Z,95689.43
2023-12-16T02:07:49.791Z,95689.72
2023-12-16T02:08:26.568Z,95694.35
2023-12-16T02:09:46.166Z,95697.04
2023-12-16T02:10:21.131Z,95697.54
2023-12-16T02:10:55.631Z,95697.54
2023-12-16T02:11:31.826Z,95697.27
2023-12-16T02:12:06.567Z,95700.08
2023-12-16T02:12:42.217Z,95702.65
2023-12-16T02:13:28.863Z,95699.82
2023-12-16T02:14:04.041Z,95699.63
2023-12-16T02:14:37.921Z,95697.56
2023-12-16T02:15:11.808Z,95704.43
2023-12-16T02:15:46.862Z,95697.98
2023-12-16T02:16:20.749Z,95697.80
2023-12-16T02:17:14.331Z,95696.70
2023-12-16T02:17:48.490Z,95696.05
2023-12-16T02:18:22.613Z,95699.41
2023-12-16T02:18:56.766Z,95697.36
2023-12-16T02:19:31.949Z,95703.36
2023-12-16T02:20:07.267Z,95699.79
2023-12-16T02:20:52.200Z,95702.60
2023-12-16T02:22:19.247Z,95705.73
2023-12-16T02:22:54.369Z,95701.77
2023-12-16T02:23:28.245Z,95704.80
2023-12-16T02:24:02.612Z,95707.09
2023-12-16T02:24:52.673Z,95708.30
2023-12-16T02:25:27.122Z,95707.75
2023-12-16T02:26:01.897Z,95707.00
2023-12-16T02:26:35.856Z,95707.34
2023-12-16T02:27:10.252Z,95710.70
2023-12-16T02:27:46.014Z,95707.20
2023-12-16T02:28:32.819Z,95703.70
2023-12-16T02:29:07.500Z,95703.73
2023-12-16T02:29:41.252Z,95699.34
2023-12-16T02:30:15.126Z,95699.62
2023-12-16T02:30:49.103Z,95678.65
2023-12-16T02:31:23.171Z,95701.58
2023-12-16T02:32:14.470Z,95699.14
2023-12-16T02:32:55.799Z,95698.27
2023-12-16T02:33:30.744Z,95702.63
2023-12-16T02:34:05.164Z,95699.70
2023-12-16T02:34:40.366Z,95701.28
2023-12-16T02:35:14.565Z,95700.60
2023-12-16T02:36:04.401Z,95697.20
2023-12-16T02:36:38.243Z,95697.27
2023-12-16T02:37:14.315Z,95696.98
2023-12-16T02:37:47.937Z,95694.01
2023-12-16T02:38:21.641Z,95698.12
2023-12-16T02:38:58.445Z,95700.79
2023-12-16T02:39:51.486Z,95700.73
2023-12-16T02:40:34.201Z,95704.48
2023-12-16T02:41:07.964Z,95705.97
2023-12-16T02:41:41.823Z,95702.95
2023-12-16T02:42:15.925Z,95704.39
2023-12-16T02:43:25.031Z,95699.45
2023-12-16T02:44:02.564Z,95704.96
2023-12-16T02:44:36.446Z,95706.30
2023-12-16T02:45:10.767Z,95703.30
2023-12-16T02:45:44.839Z,95706.48
2023-12-16T02:46:19.278Z,95706.00
2023-12-16T02:47:09.842Z,95708.09
2023-12-16T02:47:44.524Z,95708.05
2023-12-16T02:48:18.294Z,95707.52
2023-12-16T02:48:56.699Z,95708.95
2023-12-16T02:49:33.283Z,95708.52
2023-12-16T02:50:09.509Z,95713.86
2023-12-16T02:50:52.814Z,95712.21
2023-12-16T02:51:27.072Z,95711.58
2023-12-16T02:52:01.515Z,95708.52
2023-12-16T02:52:35.228Z,95714.09
2023-12-16T02:53:09.110Z,95710.70
2023-12-16T02:53:42.973Z,95712.03
2023-12-16T02:54:35.420Z,95716.42
2023-12-16T02:55:09.839Z,95716.80
2023-12-16T02:55:50.466Z,95724.86
2023-12-16T02:56:28.232Z,95722.64
2023-12-16T02:57:02.924Z,95722.70
2023-12-16T02:58:12.199Z,95730.67
2023-12-16T02:58:45.958Z,95733.00
2023-12-16T02:59:20.128Z,95739.23
2023-12-16T02:59:56.390Z,95737.48
2023-12-16T03:06:14.232Z,95750.67
2023-12-16T03:06:48.231Z,95745.98
2023-12-16T03:07:22.521Z,95750.97
2023-12-16T03:07:58.825Z,95751.98
2023-12-16T03:08:33.600Z,95752.91
2023-12-16T03:09:07.500Z,95750.80
2023-12-16T03:09:55.324Z,95749.27
2023-12-16T03:10:29.339Z,95749.25
2023-12-16T03:11:04.909Z,95745.47
2023-12-16T03:11:39.728Z,95748.86
2023-12-16T03:12:13.567Z,95747.11
2023-12-16T03:12:47.629Z,95744.33
2023-12-16T03:13:35.936Z,95743.61
2023-12-16T03:14:10.196Z,95748.25
2023-12-16T03:14:44.469Z,95739.45
2023-12-16T03:15:19.047Z,95739.81
2023-12-16T03:15:53.027Z,95735.73
2023-12-16T03:16:30.368Z,95732.27
2023-12-16T03:17:18.191Z,95737.66
2023-12-16T03:17:53.474Z,95743.28
2023-12-16T03:18:27.657Z,95747.27
2023-12-16T03:19:01.532Z,95746.69
2023-12-16T03:19:35.391Z,95747.70
2023-12-16T03:20:10.333Z,95749.00
2023-12-16T03:20:59.486Z,95750.55
2023-12-16T03:21:34.276Z,95751.25
2023-12-16T03:22:08.639Z,95750.02
2023-12-16T03:22:42.369Z,95753.69
2023-12-16T03:23:23.077Z,95749.53
2023-12-16T03:23:58.652Z,95749.77
2023-12-16T03:24:40.355Z,95746.89
2023-12-16T03:25:14.613Z,95749.88
2023-12-16T03:25:48.787Z,95749.23
2023-12-16T03:26:22.908Z,95748.23
2023-12-16T03:26:57.123Z,95752.96
2023-12-16T03:27:33.048Z,95749.14
2023-12-16T03:28:20.355Z,95749.04
2023-12-16T03:28:54.426Z,95746.44
2023-12-16T03:29:30.439Z,95745.85
2023-12-16T03:30:05.092Z,95748.04
2023-12-16T03:30:41.782Z,95753.75
2023-12-16T03:31:16.062Z,95749.41
2023-12-16T03:32:01.514Z,95750.61
2023-12-16T03:32:36.293Z,95753.01
2023-12-16T03:33:10.309Z,95753.49
2023-12-16T03:33:44.738Z,95751.21
2023-12-16T03:34:19.297Z,95750.98
2023-12-16T03:34:53.418Z,95749.90
2023-12-16T03:35:41.863Z,95749.60
2023-12-16T03:36:18.771Z,95748.99
2023-12-16T03:36:52.956Z,95749.09
2023-12-16T03:37:27.077Z,95750.11
2023-12-16T03:38:04.699Z,95749.17
2023-12-16T03:38:39.007Z,95748.45
2023-12-16T03:39:25.662Z,95750.13
2023-12-16T03:40:01.603Z,95749.33
2023-12-16T03:40:36.694Z,95748.44
2023-12-16T03:41:11.137Z,95748.12
2023-12-16T03:41:45.174Z,95749.63
2023-12-16T03:42:18.771Z,95750.41
2023-12-16T03:43:04.673Z,95746.06
2023-12-16T03:43:39.228Z,95743.36
2023-12-16T03:44:13.576Z,95743.77
2023-12-16T03:44:49.904Z,95746.22
2023-12-16T03:45:24.549Z,95746.64
2023-12-16T03:46:00.892Z,95743.60
2023-12-16T03:46:45.043Z,95745.71
2023-12-16T03:47:19.364Z,95744.94
2023-12-16T03:47:55.873Z,95746.70
2023-12-16T03:48:30.210Z,95745.33
2023-12-16T03:49:04.409Z,95747.02
2023-12-16T03:49:41.654Z,95744.30
2023-12-16T03:50:28.298Z,95747.86
2023-12-16T03:51:02.152Z,95749.34
2023-12-16T03:51:36.131Z,95748.27
2023-12-16T03:52:10.050Z,95746.05
2023-12-16T03:52:43.683Z,95745.00
2023-12-16T03:53:17.421Z,95744.89
2023-12-16T03:54:11.376Z,95738.53
2023-12-16T03:54:45.733Z,95734.60
2023-12-16T03:55:19.434Z,95739.27
2023-12-16T03:55:55.255Z,95732.64
2023-12-16T03:56:29.529Z,95733.52
2023-12-16T03:57:03.118Z,95735.66
2023-12-16T03:57:49.434Z,95733.27
2023-12-16T03:58:24.768Z,95733.55
2023-12-16T03:59:01.423Z,95728.52
2023-12-16T03:59:35.142Z,95728.20
2023-12-16T04:00:12.313Z,95730.17
2023-12-16T04:00:46.848Z,95719.49
2023-12-16T04:01:34.999Z,95721.51
2023-12-16T04:02:08.917Z,95721.76
2023-12-16T04:02:43.765Z,95717.81
2023-12-16T04:03:17.539Z,95722.91
2023-12-16T04:03:52.053Z,95722.66
2023-12-16T04:04:27.224Z,95727.09
2023-12-16T04:05:14.520Z,95731.17
2023-12-16T04:05:48.771Z,95731.66
2023-12-16T04:06:31.291Z,95731.52
2023-12-16T04:07:06.444Z,95734.60
2023-12-16T04:07:40.916Z,95734.75
2023-12-16T04:08:14.949Z,95734.74
2023-12-16T04:08:58.408Z,95732.23
2023-12-16T04:09:32.354Z,95734.27
2023-12-16T04:10:06.561Z,95734.90
2023-12-16T04:10:40.413Z,95734.13
2023-12-16T04:11:14.393Z,95734.27
2023-12-16T04:11:50.957Z,95739.94
2023-12-16T04:12:43.001Z,95735.11
2023-12-16T04:13:17.432Z,95741.19
2023-12-16T04:13:51.823Z,95741.45
2023-12-16T04:14:31.051Z,95740.18
2023-12-16T04:15:08.823Z,95740.77
2023-12-16T04:15:43.083Z,95747.10
2023-12-16T04:16:27.252Z,95747.96
2023-12-16T04:17:01.483Z,95748.41
2023-12-16T04:17:35.430Z,95744.06
2023-12-16T04:18:09.162Z,95741.80
2023-12-16T04:18:43.394Z,95748.50
2023-12-16T04:19:17.733Z,95749.16
2023-12-16T04:20:06.776Z,95747.77
2023-12-16T04:20:40.509Z,95749.64
2023-12-16T04:21:17.825Z,95749.48
2023-12-16T04:21:51.533Z,95746.71
2023-12-16T04:22:26.001Z,95748.10
2023-12-16T04:23:05.704Z,95752.36
2023-12-16T04:23:48.903Z,95749.39
2023-12-16T04:24:23.697Z,95748.69
2023-12-16T04:24:59.603Z,95749.65
2023-12-16T04:25:34.153Z,95751.59
2023-12-16T04:26:08.760Z,95755.36
2023-12-16T04:26:43.513Z,95752.02
2023-12-16T04:27:29.418Z,95752.54
2023-12-16T04:28:04.002Z,95751.15
2023-12-16T04:28:38.020Z,95753.66
2023-12-16T04:29:11.672Z,95745.18
2023-12-16T04:29:46.118Z,95741.49
2023-12-16T04:30:30.773Z,95752.14
2023-12-16T04:31:18.878Z,95745.05
2023-12-16T04:31:54.582Z,95747.73
2023-12-16T04:32:29.947Z,95747.48
2023-12-16T04:33:04.100Z,95744.92
2023-12-16T04:33:38.309Z,95748.55
2023-12-16T04:34:12.678Z,95745.11
2023-12-16T04:34:55.573Z,95743.45
2023-12-16T04:35:30.270Z,95740.11
2023-12-16T04:36:04.606Z,95742.46
2023-12-16T04:36:38.741Z,95742.09
2023-12-16T04:37:12.737Z,95741.48
2023-12-16T04:37:49.180Z,95743.84
2023-12-16T04:38:42.694Z,95745.48
2023-12-16T04:39:16.892Z,95747.39
2023-12-16T04:39:51.618Z,95742.70
2023-12-16T04:40:26.500Z,95741.71
2023-12-16T04:41:02.984Z,95746.11
2023-12-16T04:42:14.208Z,95744.44
2023-12-16T04:42:48.727Z,95742.80
2023-12-16T04:43:23.016Z,95741.88
2023-12-16T04:43:56.719Z,95749.83
2023-12-16T04:44:30.550Z,95747.04
2023-12-16T04:45:07.438Z,95748.03
2023-12-16T04:45:54.094Z,95748.26
2023-12-16T04:46:29.457Z,95747.45
2023-12-16T04:47:06.795Z,95748.48
2023-12-16T04:47:42.277Z,95747.95
2023-12-16T04:48:16.481Z,95747.85
2023-12-16T04:48:50.796Z,95745.64
2023-12-16T04:49:37.320Z,95744.63
2023-12-16T04:50:11.279Z,95744.98
2023-12-16T04:50:45.263Z,95749.91
2023-12-16T04:51:21.602Z,95750.45
2023-12-16T04:51:55.108Z,95749.61
2023-12-16T04:52:28.986Z,95753.62
2023-12-16T04:53:22.361Z,95753.48
2023-12-16T04:53:57.852Z,95759.92
2023-12-16T04:54:32.313Z,95758.15
2023-12-16T04:55:07.708Z,95763.36
2023-12-16T04:55:41.156Z,95759.96
2023-12-16T04:56:18.467Z,95765.94
2023-12-16T04:57:01.263Z,95764.92
2023-12-16T04:57:35.549Z,95768.92
2023-12-16T04:58:09.845Z,95759.67
2023-12-16T04:58:43.695Z,95767.79
2023-12-16T04:59:17.042Z,95769.84
2023-12-16T04:59:50.548Z,95772.35
2023-12-16T05:00:40.876Z,95769.39
2023-12-16T05:01:14.567Z,95771.66
2023-12-16T05:01:49.035Z,95770.14
2023-12-16T05:02:23.810Z,95772.86
2023-12-16T05:02:57.303Z,95772.52
2023-12-16T05:03:33.553Z,95774.02
2023-12-16T05:04:20.958Z,95773.36
2023-12-16T05:04:54.946Z,95776.43
2023-12-16T05:05:31.449Z,95778.45
2023-12-16T05:06:05.664Z,95776.92
2023-12-16T05:06:39.913Z,95782.40
2023-12-16T05:07:13.671Z,95783.46
2023-12-16T05:08:01.258Z,95784.54
2023-12-16T05:08:35.454Z,95787.08
2023-12-16T05:09:14.015Z,95788.27
2023-12-16T05:09:47.505Z,95788.58
2023-12-16T05:10:21.677Z,95788.82
2023-12-16T05:10:55.689Z,95782.67
2023-12-16T05:11:44.668Z,95784.38
2023-12-16T05:12:34.835Z,95783.22
2023-12-16T05:13:14.074Z,95787.00
2023-12-16T05:13:47.988Z,95792.86
2023-12-16T05:14:21.446Z,95791.25
2023-12-16T05:15:32.036Z,95792.16
2023-12-16T05:16:07.093Z,95788.81
2023-12-16T05:16:45.560Z,95791.88
2023-12-16T05:17:21.405Z,95783.30
2023-12-16T05:17:57.125Z,95788.33
2023-12-16T05:18:33.169Z,95787.73
2023-12-16T05:19:16.002Z,95785.70
2023-12-16T05:19:50.619Z,95786.05
2023-12-16T05:20:24.378Z,95782.92
2023-12-16T05:20:58.455Z,95785.39
2023-12-16T05:21:32.532Z,95786.11
2023-12-16T05:22:06.382Z,95786.61
2023-12-16T05:22:55.699Z,95785.65
2023-12-16T05:23:29.630Z,95785.36
2023-12-16T05:24:03.312Z,95783.14
2023-12-16T05:24:40.329Z,95779.94
2023-12-16T05:25:16.362Z,95782.41
2023-12-16T05:25:50.697Z,95780.31
2023-12-16T05:26:38.123Z,95780.48
2023-12-16T05:27:13.433Z,95778.41
2023-12-16T05:27:47.710Z,95778.93
2023-12-16T05:28:22.171Z,95781.48
2023-12-16T05:28:56.809Z,95778.20
2023-12-16T05:29:30.396Z,95781.56
2023-12-16T05:30:18.109Z,95777.87
2023-12-16T05:30:51.934Z,95781.05
2023-12-16T05:31:25.370Z,95782.90
2023-12-16T05:31:59.316Z,95781.18
2023-12-16T05:32:33.701Z,95784.06
2023-12-16T05:33:09.316Z,95781.17
2023-12-16T05:33:58.874Z,95786.20
2023-12-16T05:34:33.129Z,95783.94
2023-12-16T05:35:07.823Z,95785.26
2023-12-16T05:35:41.560Z,95787.20
2023-12-16T05:36:15.346Z,95787.83
2023-12-16T05:36:49.332Z,95789.12
2023-12-16T05:37:39.130Z,95789.77
2023-12-16T05:38:13.036Z,95793.04
2023-12-16T05:38:46.698Z,95791.94
2023-12-16T05:39:20.385Z,95789.84
2023-12-16T05:39:57.073Z,95786.45
2023-12-16T05:40:30.901Z,95789.32
2023-12-16T05:41:39.830Z,95788.23
2023-12-16T05:42:14.254Z,95790.55
2023-12-16T05:42:50.962Z,95791.01
2023-12-16T05:43:25.214Z,95793.85
2023-12-16T05:44:00.445Z,95786.95
2023-12-16T05:44:59.692Z,95787.80
2023-12-16T05:45:33.208Z,95784.74
2023-12-16T05:46:06.792Z,95784.08
2023-12-16T05:46:40.492Z,95783.33
2023-12-16T05:47:14.383Z,95788.93
2023-12-16T05:47:47.774Z,95787.36
2023-12-16T05:48:40.055Z,95778.73
2023-12-16T05:49:15.789Z,95779.39
2023-12-16T05:49:49.757Z,95783.02
2023-12-16T05:50:23.482Z,95782.23
2023-12-16T05:50:57.341Z,95777.16
2023-12-16T05:51:40.388Z,95778.79
2023-12-16T05:52:28.030Z,95774.38
2023-12-16T05:53:02.059Z,95775.42
2023-12-16T05:53:36.397Z,95775.32
2023-12-16T05:54:11.529Z,95776.79
2023-12-16T05:54:46.713Z,95777.14
2023-12-16T05:55:21.581Z,95776.73
2023-12-16T05:56:07.787Z,95777.27
2023-12-16T05:56:44.306Z,95774.24
2023-12-16T05:57:19.094Z,95777.93
2023-12-16T05:57:54.681Z,95780.98
2023-12-16T05:58:28.572Z,95779.27
2023-12-16T05:59:02.187Z,95779.34
2023-12-16T05:59:52.420Z,95777.20
2023-12-16T06:00:30.238Z,95782.67
2023-12-16T06:01:08.914Z,95786.23
2023-12-16T06:01:44.412Z,95786.84
2023-12-16T06:02:21.150Z,95792.41
2023-12-16T06:02:55.719Z,95788.04
2023-12-16T06:03:43.558Z,95784.50
2023-12-16T06:04:18.681Z,95777.59
2023-12-16T06:04:54.999Z,95782.52
2023-12-16T06:05:30.318Z,95787.92
2023-12-16T06:06:04.603Z,95780.02
2023-12-16T06:06:38.789Z,95788.77
2023-12-16T06:07:23.542Z,95788.47
2023-12-16T06:07:59.964Z,95794.34
2023-12-16T06:08:36.034Z,95796.03
2023-12-16T06:09:10.369Z,95791.25
2023-12-16T06:09:44.153Z,95797.63
2023-12-16T06:10:17.663Z,95798.82
2023-12-16T06:11:00.385Z,95799.28
2023-12-16T06:11:33.956Z,95805.15
2023-12-16T06:12:09.113Z,95807.95
2023-12-16T06:12:46.776Z,95803.48
2023-12-16T06:13:20.690Z,95807.09
2023-12-16T06:13:54.302Z,95810.06
2023-12-16T06:14:41.321Z,95816.93
2023-12-16T06:15:15.708Z,95818.70
2023-12-16T06:15:51.119Z,95818.44
2023-12-16T06:16:26.858Z,95816.91
2023-12-16T06:17:00.613Z,95820.15
2023-12-16T06:17:34.764Z,95823.20
2023-12-16T06:18:22.456Z,95827.45
2023-12-16T06:18:56.194Z,95825.67
2023-12-16T06:19:31.216Z,95822.06
2023-12-16T06:20:07.014Z,95828.19
2023-12-16T06:20:41.106Z,95832.83
2023-12-16T06:21:14.698Z,95834.52
2023-12-16T06:22:02.298Z,95836.06
2023-12-16T06:22:38.323Z,95836.61
2023-12-16T06:23:11.984Z,95839.58
2023-12-16T06:23:45.737Z,95839.48
2023-12-16T06:24:19.421Z,95843.66
2023-12-16T06:24:52.706Z,95844.83
2023-12-16T06:25:48.679Z,95842.86
2023-12-16T06:26:22.252Z,95845.13
2023-12-16T06:26:56.309Z,95846.27
2023-12-16T06:27:31.828Z,95844.92
2023-12-16T06:28:09.024Z,95847.50
2023-12-16T06:29:24.434Z,95848.39
2023-12-16T06:29:58.251Z,95849.27
2023-12-16T06:30:32.387Z,95852.60
2023-12-16T06:31:07.182Z,95842.52
2023-12-16T06:31:43.529Z,95851.11
2023-12-16T06:32:17.383Z,95852.42
2023-12-16T06:33:05.101Z,95849.33
2023-12-16T06:33:39.484Z,95850.23
2023-12-16T06:34:14.031Z,95851.91
2023-12-16T06:34:47.842Z,95853.58
2023-12-16T06:35:21.742Z,95853.35
2023-12-16T06:35:56.215Z,95853.70
2023-12-16T06:36:45.657Z,95857.20
2023-12-16T06:37:19.457Z,95857.25
2023-12-16T06:37:53.164Z,95861.02
2023-12-16T06:38:26.646Z,95860.67
2023-12-16T06:39:00.349Z,95856.39
2023-12-16T06:39:34.688Z,95861.17
2023-12-16T06:40:30.628Z,95860.04
2023-12-16T06:41:05.168Z,95860.66
2023-12-16T06:41:39.126Z,95857.30
2023-12-16T06:42:13.473Z,95856.84
2023-12-16T06:42:47.233Z,95851.76
2023-12-16T06:43:21.029Z,95849.34
2023-12-16T06:44:06.520Z,95851.24
2023-12-16T06:44:39.963Z,95850.30
2023-12-16T06:45:14.005Z,95843.66
2023-12-16T06:45:47.958Z,95845.70
2023-12-16T06:46:21.750Z,95846.09
2023-12-16T06:46:55.440Z,95845.60
2023-12-16T06:47:44.859Z,95841.15
2023-12-16T06:48:22.100Z,95836.91
2023-12-16T06:48:56.147Z,95840.52
2023-12-16T06:49:30.290Z,95839.47
2023-12-16T06:50:08.443Z,95841.33
2023-12-16T06:50:43.598Z,95841.20
2023-12-16T06:51:26.565Z,95839.28
2023-12-16T06:52:01.595Z,95835.30
2023-12-16T06:52:37.368Z,95833.98
2023-12-16T06:53:11.742Z,95834.69
2023-12-16T06:53:47.796Z,95839.69
2023-12-16T06:54:21.089Z,95836.81
2023-12-16T06:55:12.982Z,95833.80
2023-12-16T06:55:46.396Z,95843.48
2023-12-16T06:56:20.183Z,95846.45
2023-12-16T06:56:54.509Z,95845.57
2023-12-16T06:57:28.551Z,95845.32
2023-12-16T06:58:03.266Z,95844.81
2023-12-16T06:58:49.738Z,95845.06
2023-12-16T06:59:23.615Z,95845.80
2023-12-16T06:59:58.280Z,95845.33
2023-12-16T07:00:32.140Z,95846.05
2023-12-16T07:01:05.869Z,95846.48
2023-12-16T07:01:39.684Z,95850.82
2023-12-16T07:02:30.572Z,95848.63
2023-12-16T07:03:04.541Z,95847.26
2023-12-16T07:03:38.656Z,95846.10
2023-12-16T07:04:12.501Z,95847.00
2023-12-16T07:04:46.674Z,95847.05
2023-12-16T07:05:20.625Z,95841.67
2023-12-16T07:06:12.683Z,95840.09
2023-12-16T07:06:47.308Z,95842.77
2023-12-16T07:07:20.941Z,95842.61
2023-12-16T07:07:54.640Z,95845.08
2023-12-16T07:08:28.327Z,95846.14
2023-12-16T07:09:01.783Z,95846.89
2023-12-16T07:09:50.350Z,95846.73
2023-12-16T07:10:23.927Z,95847.30
2023-12-16T07:11:00.844Z,95847.15
2023-12-16T07:11:36.829Z,95845.35
2023-12-16T07:12:11.128Z,95848.07
2023-12-16T07:12:44.985Z,95842.03
2023-12-16T07:13:55.074Z,95835.30
2023-12-16T07:14:30.354Z,95836.33
2023-12-16T07:15:04.095Z,95837.27
2023-12-16T07:15:39.669Z,95836.79
2023-12-16T07:16:16.354Z,95837.30
2023-12-16T07:17:09.005Z,95837.17
2023-12-16T07:17:43.798Z,95841.17
2023-12-16T07:18:17.952Z,95838.55
2023-12-16T07:18:52.005Z,95842.85
2023-12-16T07:19:25.974Z,95832.81
2023-12-16T07:19:59.927Z,95840.88
2023-12-16T07:20:50.591Z,95829.37
2023-12-16T07:21:24.530Z,95847.66
2023-12-16T07:22:00.193Z,95845.39
2023-12-16T07:22:34.406Z,95846.34
2023-12-16T07:23:08.647Z,95848.29
2023-12-16T07:23:43.412Z,95844.41
2023-12-16T07:24:31.253Z,95849.02
2023-12-16T07:25:05.962Z,95849.21
2023-12-16T07:25:42.093Z,95840.72
2023-12-16T07:26:16.538Z,95852.35
2023-12-16T07:26:50.661Z,95853.75
2023-12-16T07:27:24.951Z,95857.47
2023-12-16T07:28:14.387Z,95856.31
2023-12-16T07:28:49.658Z,95852.70